Terminal Aerodrome Forecast
Issued by NWS Greer, SC

Home | Current Version | Previous Version | Text Only | Print | Product List | Glossary On
Versions: 1 2 3 4 5 6 7 8 9 10 11 12 13 14 15 16 17 18 19 20 21 22 23 24 25 26 27 28 29 30 31 32 33 34 35 36 37 38 39 40 41 42 43 44
000
FTUS42 KGSP 271720
TAFCLT
TAF
KCLT 271720Z 2718/2818 20004KT P6SM SCT250
     FM280300 20003KT P6SM BKN090
     FM281100 21004KT P6SM -SHRA OVC045
     FM281300 21005KT 4SM -SHRA BR OVC019
     FM281600 21006KT 2SM -SHRA BR OVC009=

USA.gov is the U.S. government's official web portal to all federal, state and local government web resources and services.